Time;durP1;ratioP1;P1;durP2;ratioP2;P2;SDS_P1;SDS_P2;PMS_P1;PMS_P2;Temp;Humidity;BMP_temperature;BMP_pressure;BME280_temperature;BME280_humidity;BME280_pressure;Samples;Min_cycle;Max_cycle;Signal;HPM_P1;HPM_P2
2022/01/04 00:00:14;;;;;;;17.90;10.23;;;8.50;99.90;;;;;;5087612;28;20237;-57
2022/01/04 00:02:42;;;;;;;16.27;10.40;;;8.60;99.90;;;;;;5088828;28;20195;-57
2022/01/04 00:05:10;;;;;;;14.57;9.80;;;8.60;1.00;;;;;;5088880;28;20198;-57
2022/01/04 00:07:38;;;;;;;13.40;9.67;;;8.50;1.00;;;;;;5069323;28;20251;-57
2022/01/04 00:10:08;;;;;;;15.93;9.87;;;8.50;1.00;;;;;;5063860;28;20190;-57
2022/01/04 00:15:23;;;;;;;14.87;9.53;;;8.50;99.90;;;;;;5072288;28;20252;-57
2022/01/04 00:17:51;;;;;;;15.77;8.73;;;8.50;99.90;;;;;;5083264;28;20252;-58
2022/01/04 00:20:18;;;;;;;17.17;9.47;;;8.50;99.90;;;;;;5067498;28;20727;-57
2022/01/04 00:22:46;;;;;;;16.17;9.00;;;8.40;99.90;;;;;;5087522;28;20813;-58
2022/01/04 00:25:15;;;;;;;9.27;7.13;;;8.50;99.90;;;;;;5088588;28;20197;-57
2022/01/04 00:27:42;;;;;;;13.97;7.80;;;8.40;58.50;;;;;;5068173;28;20186;-58
2022/01/04 00:30:12;;;;;;;9.53;6.53;;;8.40;95.10;;;;;;5088033;28;20653;-57
2022/01/04 00:32:39;;;;;;;8.73;6.10;;;8.40;52.40;;;;;;5068908;28;20260;-58
2022/01/04 00:35:09;;;;;;;9.27;6.23;;;8.30;1.00;;;;;;5086934;28;20202;-57
2022/01/04 00:37:36;;;;;;;8.00;5.40;;;8.30;1.00;;;;;;5081388;28;20252;-57
2022/01/04 00:40:07;;;;;;;7.97;5.27;;;8.30;1.00;;;;;;5048504;28;20202;-57
2022/01/04 00:42:34;;;;;;;6.97;5.17;;;8.30;1.00;;;;;;5079806;28;20571;-57
2022/01/04 00:45:02;;;;;;;8.20;4.70;;;8.30;1.00;;;;;;5087767;28;20186;-57
2022/01/04 00:47:41;;;;;;;8.37;5.00;;;8.30;1.00;;;;;;5082291;28;20190;-57
2022/01/04 00:50:08;;;;;;;7.27;4.90;;;8.20;1.00;;;;;;5087072;28;20247;-58
2022/01/04 00:52:35;;;;;;;7.50;5.20;;;8.20;1.00;;;;;;5069679;28;20237;-58
2022/01/04 00:55:04;;;;;;;12.73;6.50;;;8.20;1.00;;;;;;5087601;28;20598;-57
2022/01/04 00:57:31;;;;;;;9.00;5.97;;;8.20;1.00;;;;;;5068635;28;20194;-58
2022/01/04 00:59:58;;;;;;;11.80;6.97;;;8.20;1.00;;;;;;5085148;28;20273;-58
2022/01/04 01:02:27;;;;;;;14.30;6.90;;;8.10;1.00;;;;;;5088136;28;20254;-57
2022/01/04 01:04:55;;;;;;;13.07;7.63;;;8.10;1.00;;;;;;5067569;28;20646;-57
2022/01/04 01:07:22;;;;;;;11.47;7.10;;;8.10;1.00;;;;;;5067221;28;20247;-59
2022/01/04 01:12:52;;;;;;;11.17;7.43;;;8.20;1.00;;;;;;4984769;28;20224;-58
2022/01/04 01:15:19;;;;;;;12.43;8.00;;;8.10;1.00;;;;;;5048044;28;20194;-57
2022/01/04 01:17:46;;;;;;;10.50;7.87;;;8.10;1.00;;;;;;5083339;28;20195;-57
2022/01/04 01:20:14;;;;;;;12.10;7.87;;;8.10;1.00;;;;;;5068840;28;20259;-58
2022/01/04 01:22:41;;;;;;;8.97;8.07;;;8.10;1.00;;;;;;5070523;28;20298;-57
2022/01/04 01:25:10;;;;;;;11.43;8.50;;;8.00;27.60;;;;;;5088419;28;20790;-58
2022/01/04 01:27:37;;;;;;;9.30;8.03;;;8.00;98.90;;;;;;5085166;28;20668;-57
2022/01/04 01:30:07;;;;;;;12.77;8.07;;;8.00;99.90;;;;;;5084926;28;20190;-57
2022/01/04 01:32:34;;;;;;;12.20;8.30;;;8.00;99.90;;;;;;5068648;28;20233;-57
2022/01/04 01:35:01;;;;;;;11.43;7.60;;;8.00;99.90;;;;;;5068293;28;20225;-58
2022/01/04 01:37:28;;;;;;;14.03;8.90;;;8.00;99.90;;;;;;5084757;28;20214;-57
2022/01/04 01:39:55;;;;;;;9.40;8.17;;;8.00;99.90;;;;;;5062465;28;20237;-58
2022/01/04 01:42:23;;;;;;;13.03;8.83;;;8.00;99.90;;;;;;5060609;28;21128;-57
2022/01/04 01:44:51;;;;;;;11.17;8.83;;;7.90;99.90;;;;;;5067168;28;20265;-58
2022/01/04 01:47:18;;;;;;;12.07;8.73;;;7.90;99.90;;;;;;5070962;28;20690;-57
2022/01/04 01:49:45;;;;;;;15.13;8.87;;;8.00;99.90;;;;;;5084525;28;20205;-58
2022/01/04 01:52:13;;;;;;;12.53;9.27;;;8.00;91.10;;;;;;5085776;28;20259;-58
2022/01/04 01:54:40;;;;;;;16.13;9.33;;;8.00;45.20;;;;;;5085606;28;20539;-58
2022/01/04 01:57:07;;;;;;;13.53;9.53;;;8.00;1.00;;;;;;5085471;28;20286;-57
2022/01/04 01:59:34;;;;;;;14.77;11.57;;;7.90;21.00;;;;;;5085297;28;20202;-58
2022/01/04 02:02:05;;;;;;;13.67;9.27;;;7.90;28.20;;;;;;5085850;28;20263;-58
2022/01/04 02:04:32;;;;;;;12.33;9.90;;;7.90;1.00;;;;;;5066212;28;20275;-58
2022/01/04 02:06:59;;;;;;;14.93;9.70;;;7.90;1.00;;;;;;5085080;28;20263;-58
2022/01/04 02:09:26;;;;;;;10.10;8.40;;;7.90;1.00;;;;;;5084035;28;20734;-57
2022/01/04 02:11:54;;;;;;;11.87;8.57;;;7.90;1.00;;;;;;5066501;28;20266;-57
2022/01/04 02:14:21;;;;;;;14.43;9.07;;;7.90;1.00;;;;;;5085509;28;20243;-57
2022/01/04 02:16:48;;;;;;;14.53;8.70;;;7.90;1.00;;;;;;5032841;28;20198;-57
2022/01/04 02:19:16;;;;;;;13.73;10.63;;;7.90;1.00;;;;;;5086290;28;20677;-57
2022/01/04 02:21:44;;;;;;;13.30;10.20;;;7.90;1.00;;;;;;5064299;28;20218;-57
2022/01/04 02:24:11;;;;;;;15.50;11.53;;;7.90;1.00;;;;;;5068263;28;20657;-57
2022/01/04 02:26:40;;;;;;;15.60;10.27;;;7.90;1.00;;;;;;5085412;28;20210;-58
2022/01/04 02:29:08;;;;;;;13.50;11.17;;;7.80;1.00;;;;;;5084398;28;20278;-58
2022/01/04 02:31:37;;;;;;;11.87;8.90;;;7.80;1.00;;;;;;5086690;28;20221;-56
2022/01/04 02:34:04;;;;;;;10.67;8.60;;;7.90;1.00;;;;;;5071968;28;20787;-57
2022/01/04 02:36:31;;;;;;;11.33;8.77;;;7.90;1.00;;;;;;5058974;28;20195;-57
2022/01/04 02:38:58;;;;;;;13.10;9.47;;;7.80;1.00;;;;;;5066074;28;20199;-58
2022/01/04 02:41:27;;;;;;;11.30;8.03;;;7.80;1.00;;;;;;5067218;28;20206;-57
2022/01/04 02:43:56;;;;;;;9.73;7.80;;;7.90;1.00;;;;;;5060933;28;20192;-57
2022/01/04 02:46:23;;;;;;;14.13;7.93;;;7.80;1.00;;;;;;5060789;28;20717;-57
2022/01/04 02:48:50;;;;;;;9.87;8.03;;;7.90;1.00;;;;;;5050191;28;20199;-57
2022/01/04 02:51:18;;;;;;;9.03;7.10;;;7.80;1.00;;;;;;5057814;28;20198;-57
2022/01/04 02:53:45;;;;;;;10.40;7.60;;;7.80;1.00;;;;;;5064216;28;20910;-57
2022/01/04 02:56:14;;;;;;;10.97;8.03;;;7.70;1.00;;;;;;5062378;28;20222;-57
2022/01/04 02:58:41;;;;;;;11.33;6.80;;;7.80;1.00;;;;;;5062624;28;20195;-57
2022/01/04 03:01:12;;;;;;;9.93;7.53;;;7.80;1.00;;;;;;5060518;28;20212;-57
2022/01/04 03:03:39;;;;;;;7.47;6.53;;;7.80;1.00;;;;;;5060290;28;20257;-56
2022/01/04 03:06:06;;;;;;;9.80;7.63;;;7.70;1.00;;;;;;5061973;28;20223;-57
2022/01/04 03:08:33;;;;;;;9.30;7.03;;;7.70;1.00;;;;;;5060356;28;20187;-58
2022/01/04 03:11:00;;;;;;;9.40;7.23;;;7.70;1.00;;;;;;5059845;28;20222;-57
2022/01/04 03:13:27;;;;;;;8.10;6.70;;;7.70;1.00;;;;;;5066051;28;20574;-58
2022/01/04 03:15:54;;;;;;;10.07;7.60;;;7.70;1.00;;;;;;5064880;28;20646;-58
2022/01/04 03:18:21;;;;;;;10.87;7.67;;;7.70;1.00;;;;;;5049788;28;20215;-58
2022/01/04 03:20:51;;;;;;;9.97;7.67;;;7.70;91.10;;;;;;5060471;28;20369;-57
2022/01/04 03:23:18;;;;;;;10.97;6.97;;;7.70;99.90;;;;;;5059838;28;20547;-59
2022/01/04 03:25:44;;;;;;;8.33;6.60;;;7.70;99.90;;;;;;5059584;28;20200;-58
2022/01/04 03:28:12;;;;;;;9.50;7.17;;;7.70;68.60;;;;;;5061425;28;20223;-57
2022/01/04 03:30:39;;;;;;;8.80;7.23;;;7.70;1.00;;;;;;5056307;28;20308;-57
2022/01/04 03:33:06;;;;;;;9.00;7.03;;;7.70;1.00;;;;;;5077099;28;20286;-56
2022/01/04 03:35:36;;;;;;;9.13;6.43;;;7.60;1.00;;;;;;5087691;28;20857;-57
2022/01/04 03:38:03;;;;;;;10.53;7.50;;;7.70;1.00;;;;;;5085455;28;20197;-57
2022/01/04 03:40:30;;;;;;;8.00;6.23;;;7.60;1.00;;;;;;5086485;28;21128;-57
2022/01/04 03:42:57;;;;;;;8.83;7.17;;;7.60;1.00;;;;;;5089455;28;20944;-57
2022/01/04 03:45:24;;;;;;;9.17;6.60;;;7.70;1.00;;;;;;5087627;28;20275;-57
2022/01/04 03:47:51;;;;;;;8.50;6.73;;;7.70;1.00;;;;;;5088815;28;20198;-57
2022/01/04 03:50:18;;;;;;;12.33;7.87;;;7.70;1.00;;;;;;5079354;28;20279;-56
2022/01/04 03:52:45;;;;;;;8.90;7.47;;;7.70;1.00;;;;;;5068362;28;20204;-57
2022/01/04 03:55:12;;;;;;;8.73;7.67;;;7.70;1.00;;;;;;5048685;28;20303;-57
2022/01/04 03:57:39;;;;;;;9.13;7.30;;;7.70;99.90;;;;;;5079552;28;20649;-56
2022/01/04 04:00:08;;;;;;;11.07;8.33;;;7.70;99.90;;;;;;5085906;28;20264;-57
2022/01/04 04:02:39;;;;;;;12.10;8.77;;;7.70;99.90;;;;;;5084513;28;20190;-58
2022/01/04 04:05:07;;;;;;;9.90;7.90;;;7.70;99.90;;;;;;5087622;28;20190;-57
2022/01/04 04:07:34;;;;;;;9.40;8.23;;;7.70;99.90;;;;;;5089269;28;20194;-57
2022/01/04 04:10:00;;;;;;;11.90;9.30;;;7.70;99.90;;;;;;5071423;28;20202;-57
2022/01/04 04:12:27;;;;;;;10.57;8.77;;;7.70;99.90;;;;;;5088964;28;20211;-57
2022/01/04 04:14:55;;;;;;;11.07;9.33;;;7.70;99.90;;;;;;5069009;28;20186;-56
2022/01/04 04:17:22;;;;;;;12.87;9.83;;;7.70;99.90;;;;;;5070615;28;20191;-58
2022/01/04 04:19:49;;;;;;;13.90;10.30;;;7.80;99.90;;;;;;5085986;28;20657;-57
2022/01/04 04:22:16;;;;;;;17.37;12.97;;;7.70;99.90;;;;;;5067199;28;20659;-57
2022/01/04 04:24:44;;;;;;;15.60;11.10;;;7.70;99.90;;;;;;5087886;28;20197;-56
2022/01/04 04:27:12;;;;;;;14.30;10.13;;;7.70;99.90;;;;;;5066369;28;20561;-57
2022/01/04 04:29:39;;;;;;;15.90;12.63;;;7.70;99.90;;;;;;5087025;28;20202;-57
2022/01/04 04:32:07;;;;;;;28.50;22.00;;;7.70;99.90;;;;;;5064024;28;20250;-58
2022/01/04 04:34:34;;;;;;;13.67;11.00;;;7.70;99.90;;;;;;5066741;28;20191;-57
2022/01/04 04:37:01;;;;;;;15.90;9.43;;;7.70;99.90;;;;;;5067776;28;20226;-57
2022/01/04 04:39:28;;;;;;;11.93;10.40;;;7.70;99.90;;;;;;5066882;28;20731;-58
2022/01/04 04:41:55;;;;;;;12.33;9.43;;;7.70;99.90;;;;;;5066655;28;20215;-57
2022/01/04 04:44:22;;;;;;;12.10;9.77;;;7.70;99.90;;;;;;5064654;28;20310;-58
2022/01/04 04:46:49;;;;;;;11.57;9.30;;;7.70;99.90;;;;;;5062734;28;20199;-58
2022/01/04 04:49:17;;;;;;;10.80;9.33;;;7.70;99.90;;;;;;5065623;28;20190;-58
2022/01/04 04:51:44;;;;;;;13.73;9.83;;;7.70;99.90;;;;;;5065937;28;20222;-57
2022/01/04 04:54:11;;;;;;;12.27;10.30;;;7.70;99.90;;;;;;5061648;28;20202;-58
2022/01/04 04:56:40;;;;;;;11.87;9.40;;;7.70;99.90;;;;;;5063764;28;20202;-57
2022/01/04 04:59:10;;;;;;;11.97;10.57;;;7.60;99.90;;;;;;5066110;28;20183;-57
2022/01/04 05:01:38;;;;;;;14.13;10.57;;;7.60;99.90;;;;;;5066541;28;20256;-58
2022/01/04 05:04:05;;;;;;;13.37;11.03;;;7.70;99.90;;;;;;5053768;28;20868;-58
2022/01/04 05:06:32;;;;;;;14.70;10.80;;;7.60;99.90;;;;;;5063617;28;20645;-57
2022/01/04 05:08:59;;;;;;;14.10;11.47;;;7.60;99.90;;;;;;5067525;28;20198;-57
2022/01/04 05:11:26;;;;;;;12.00;10.73;;;7.60;99.90;;;;;;5066753;28;20226;-58
2022/01/04 05:13:53;;;;;;;14.10;12.07;;;7.60;99.90;;;;;;5063343;28;20244;-57
2022/01/04 05:16:20;;;;;;;13.13;11.10;;;7.60;99.90;;;;;;5062506;28;20199;-58
2022/01/04 05:18:48;;;;;;;15.00;11.17;;;7.50;99.90;;;;;;5064877;28;20198;-57
2022/01/04 05:21:15;;;;;;;14.30;12.90;;;7.60;99.90;;;;;;5066134;28;20635;-58
2022/01/04 05:23:42;;;;;;;13.43;10.57;;;7.60;99.90;;;;;;5064943;28;20287;-58
2022/01/04 05:26:12;;;;;;;13.63;11.90;;;7.50;99.90;;;;;;5065998;28;20179;-57
2022/01/04 05:28:42;;;;;;;16.30;11.83;;;7.60;1.00;;;;;;5066136;28;20199;-58
2022/01/04 05:31:09;;;;;;;15.47;12.10;;;7.60;1.00;;;;;;5063624;28;20240;-57
2022/01/04 05:33:36;;;;;;;10.73;9.63;;;7.60;99.90;;;;;;5082035;28;20237;-57
2022/01/04 05:36:03;;;;;;;18.00;15.30;;;7.60;99.90;;;;;;5066202;28;20296;-58
2022/01/04 05:38:30;;;;;;;12.30;10.03;;;7.60;99.90;;;;;;5060566;28;20661;-58
2022/01/04 05:40:57;;;;;;;14.27;10.27;;;7.60;99.90;;;;;;5085006;28;20267;-58
2022/01/04 05:43:24;;;;;;;11.80;9.83;;;7.50;99.90;;;;;;5086256;28;20603;-58
2022/01/04 05:45:52;;;;;;;10.73;9.57;;;7.60;99.90;;;;;;5083340;28;20217;-57
2022/01/04 05:48:20;;;;;;;13.93;9.47;;;7.60;99.90;;;;;;5069393;28;20226;-57
2022/01/04 05:50:50;;;;;;;11.33;9.20;;;7.50;99.90;;;;;;5083860;28;20194;-58
2022/01/04 05:53:17;;;;;;;11.03;9.07;;;7.50;99.90;;;;;;5086872;28;20233;-58
2022/01/04 05:55:44;;;;;;;10.93;9.40;;;7.50;99.90;;;;;;5067260;28;20252;-57
2022/01/04 05:58:11;;;;;;;11.33;8.87;;;7.50;99.90;;;;;;5081066;28;20256;-58
2022/01/04 06:00:38;;;;;;;10.77;9.20;;;7.50;99.90;;;;;;5084388;28;20685;-57
2022/01/04 06:03:05;;;;;;;10.00;8.83;;;7.60;99.90;;;;;;5068386;28;20561;-58
2022/01/04 06:05:32;;;;;;;11.47;8.87;;;7.60;99.90;;;;;;5082866;28;20557;-58
2022/01/04 06:07:59;;;;;;;11.97;9.37;;;7.50;99.90;;;;;;5087131;28;20650;-58
2022/01/04 06:10:26;;;;;;;10.20;8.90;;;7.50;99.90;;;;;;5069458;28;20278;-58
2022/01/04 06:15:23;;;;;;;10.60;9.50;;;7.50;99.90;;;;;;5068739;28;20931;-57
2022/01/04 06:17:50;;;;;;;10.30;9.27;;;7.60;99.90;;;;;;5070166;28;20218;-58
2022/01/04 06:20:23;;;;;;;12.40;10.83;;;7.60;99.90;;;;;;5082822;28;20187;-57
2022/01/04 06:22:52;;;;;;;13.37;9.50;;;7.60;99.90;;;;;;5065707;28;20195;-57
2022/01/04 06:25:21;;;;;;;11.67;9.30;;;7.50;99.90;;;;;;5084622;28;20186;-57
2022/01/04 06:27:50;;;;;;;13.13;8.73;;;7.60;99.90;;;;;;5069298;28;20263;-59
2022/01/04 06:30:20;;;;;;;11.70;9.07;;;7.60;99.90;;;;;;5086235;28;20191;-56
2022/01/04 06:32:50;;;;;;;11.03;8.20;;;7.50;99.90;;;;;;5049175;28;20365;-57
2022/01/04 06:35:20;;;;;;;8.90;7.90;;;7.60;99.90;;;;;;5087841;28;20194;-57
2022/01/04 06:37:47;;;;;;;11.97;9.40;;;7.60;93.80;;;;;;5079785;28;20202;-57
2022/01/04 06:40:14;;;;;;;12.40;8.60;;;7.50;99.90;;;;;;5087174;28;20259;-57
2022/01/04 06:42:41;;;;;;;9.53;7.97;;;7.60;99.90;;;;;;5088225;28;20207;-57
2022/01/04 06:45:08;;;;;;;12.53;9.30;;;7.60;99.90;;;;;;5069104;28;20210;-58
2022/01/04 06:47:36;;;;;;;10.30;8.67;;;7.60;94.20;;;;;;5087832;28;20233;-57
2022/01/04 06:50:05;;;;;;;13.47;8.40;;;7.60;99.90;;;;;;5090045;28;20216;-57
2022/01/04 06:52:32;;;;;;;11.80;9.10;;;7.50;99.90;;;;;;5087521;28;20190;-58
2022/01/04 06:54:59;;;;;;;14.40;9.37;;;7.50;99.90;;;;;;5088075;28;20186;-57
2022/01/04 06:57:26;;;;;;;13.30;10.07;;;7.60;99.90;;;;;;5084641;28;20997;-57
2022/01/04 06:59:53;;;;;;;11.83;9.60;;;7.50;99.90;;;;;;5055969;28;20281;-57
2022/01/04 07:02:20;;;;;;;14.57;9.90;;;7.60;99.90;;;;;;5070025;28;20274;-58
2022/01/04 07:04:48;;;;;;;13.57;8.97;;;7.60;99.90;;;;;;5076000;28;20194;-57
2022/01/04 07:07:15;;;;;;;11.80;9.63;;;7.50;99.90;;;;;;5058077;28;20206;-57
2022/01/04 07:09:42;;;;;;;10.47;8.87;;;7.50;99.90;;;;;;5077785;28;20209;-59
2022/01/04 07:12:09;;;;;;;12.83;9.13;;;7.50;99.90;;;;;;5084206;28;20193;-57
2022/01/04 07:14:36;;;;;;;11.47;9.77;;;7.50;73.80;;;;;;5058540;28;20281;-57
2022/01/04 07:17:03;;;;;;;13.40;10.27;;;7.50;99.90;;;;;;5064124;28;20245;-58
2022/01/04 07:19:30;;;;;;;14.23;10.00;;;7.50;99.90;;;;;;5082226;28;20206;-57
2022/01/04 07:21:58;;;;;;;13.37;9.83;;;7.50;99.90;;;;;;5064647;28;20209;-58
2022/01/04 07:24:25;;;;;;;12.47;9.67;;;7.50;99.90;;;;;;5078187;28;20255;-57
2022/01/04 07:26:52;;;;;;;13.67;8.93;;;7.50;99.90;;;;;;5064783;28;20850;-57
2022/01/04 07:29:19;;;;;;;12.40;8.70;;;7.50;99.90;;;;;;5084631;28;20194;-58
2022/01/04 07:31:46;;;;;;;11.23;8.57;;;7.50;99.90;;;;;;5084714;28;20244;-57
2022/01/04 07:34:13;;;;;;;11.90;7.97;;;7.50;99.90;;;;;;5080143;28;20252;-57
2022/01/04 07:36:40;;;;;;;10.73;8.57;;;7.50;96.60;;;;;;5083746;28;20257;-56
2022/01/04 07:39:07;;;;;;;11.63;8.37;;;7.50;92.30;;;;;;5066804;28;20218;-57
2022/01/04 07:41:35;;;;;;;13.20;8.50;;;7.50;99.90;;;;;;5065987;28;20282;-58
2022/01/04 07:44:02;;;;;;;11.87;8.50;;;7.50;99.90;;;;;;5084136;28;20217;-58
2022/01/04 07:46:29;;;;;;;10.67;8.03;;;7.50;99.90;;;;;;5081782;28;20190;-57
2022/01/04 07:48:56;;;;;;;11.97;8.73;;;7.50;90.00;;;;;;5068185;28;20194;-57
2022/01/04 07:51:23;;;;;;;12.93;8.07;;;7.50;81.70;;;;;;5079917;28;20200;-57
2022/01/04 07:53:50;;;;;;;12.13;9.23;;;7.50;90.40;;;;;;5066750;28;20685;-57
2022/01/04 07:56:17;;;;;;;13.17;8.87;;;7.50;97.30;;;;;;5082978;28;20263;-57
2022/01/04 07:58:44;;;;;;;11.33;8.73;;;7.50;37.60;;;;;;5064276;28;20198;-57
2022/01/04 08:01:13;;;;;;;13.10;9.13;;;7.50;28.30;;;;;;5075427;28;20214;-58
2022/01/04 08:03:44;;;;;;;13.00;8.50;;;7.50;20.50;;;;;;5076912;28;20198;-58
2022/01/04 08:06:11;;;;;;;11.87;8.60;;;7.50;45.20;;;;;;5078571;28;20285;-57
2022/01/04 08:08:38;;;;;;;11.77;8.30;;;7.40;40.20;;;;;;5078616;28;21077;-57
2022/01/04 08:11:05;;;;;;;12.80;9.13;;;7.50;84.10;;;;;;5078290;28;21058;-57
2022/01/04 08:13:32;;;;;;;14.03;9.53;;;7.50;46.30;;;;;;5080137;28;20402;-57
2022/01/04 08:15:59;;;;;;;15.23;9.10;;;7.50;25.10;;;;;;5078993;28;20194;-57
2022/01/04 08:18:26;;;;;;;12.07;9.33;;;7.50;19.90;;;;;;5077361;28;20772;-57
2022/01/04 08:20:57;;;;;;;13.93;9.20;;;7.50;56.70;;;;;;5077750;28;20217;-57
2022/01/04 08:23:25;;;;;;;14.57;9.90;;;7.50;26.60;;;;;;5083084;28;20186;-57
2022/01/04 08:25:52;;;;;;;15.70;9.80;;;7.50;62.60;;;;;;5081593;28;20274;-57
2022/01/04 08:28:19;;;;;;;16.20;10.97;;;7.50;1.00;;;;;;5081581;28;20187;-57
2022/01/04 08:30:46;;;;;;;15.70;10.03;;;7.50;1.00;;;;;;5064489;28;20598;-57
2022/01/04 08:33:14;;;;;;;16.20;10.97;;;7.50;2.40;;;;;;5079450;28;20239;-57
2022/01/04 08:35:41;;;;;;;15.50;10.80;;;7.50;1.00;;;;;;5077879;28;20703;-57
2022/01/04 08:38:08;;;;;;;20.67;11.40;;;7.50;15.70;;;;;;5074992;28;20297;-57
2022/01/04 08:40:36;;;;;;;15.93;11.30;;;7.50;1.00;;;;;;5073546;28;20194;-57
2022/01/04 08:43:05;;;;;;;17.50;11.37;;;7.60;1.00;;;;;;5078819;28;20245;-57
2022/01/04 08:45:33;;;;;;;15.83;11.63;;;7.60;1.00;;;;;;5081824;28;20201;-57
2022/01/04 08:48:00;;;;;;;20.57;12.00;;;7.60;1.00;;;;;;5065678;28;20600;-57
2022/01/04 08:50:28;;;;;;;18.00;11.67;;;7.60;1.00;;;;;;5083765;28;20195;-57
2022/01/04 08:52:56;;;;;;;21.93;12.53;;;7.60;1.00;;;;;;5078670;28;20194;-56
2022/01/04 08:55:23;;;;;;;18.73;11.53;;;7.60;1.00;;;;;;5049221;28;20202;-57
2022/01/04 08:57:50;;;;;;;19.13;12.33;;;7.60;1.00;;;;;;5078512;28;20573;-57
2022/01/04 09:00:18;;;;;;;18.43;12.47;;;7.60;1.00;;;;;;5057591;28;20252;-58
2022/01/04 09:02:45;;;;;;;20.00;12.60;;;7.60;1.00;;;;;;5064049;28;20255;-56
2022/01/04 09:05:13;;;;;;;18.20;12.47;;;7.60;1.00;;;;;;5064890;28;20194;-58
2022/01/04 09:07:41;;;;;;;19.00;11.63;;;7.60;1.00;;;;;;5062870;28;20214;-57
2022/01/04 09:10:08;;;;;;;17.07;11.57;;;7.60;1.00;;;;;;5068680;28;20665;-57
2022/01/04 09:12:45;;;;;;;17.10;11.90;;;7.60;1.00;;;;;;5075927;28;20251;-59
2022/01/04 09:18:43;;;;;;;17.27;11.87;;;7.60;1.00;;;;;;5073980;28;20275;-57
2022/01/04 09:21:14;;;;;;;14.53;10.53;;;7.60;1.00;;;;;;5075694;28;20271;-57
2022/01/04 09:23:45;;;;;;;15.87;12.00;;;7.70;1.00;;;;;;5080220;28;20772;-57
2022/01/04 09:26:15;;;;;;;15.60;11.60;;;7.70;1.00;;;;;;5080075;28;20199;-58
2022/01/04 09:28:43;;;;;;;19.30;12.37;;;7.70;1.00;;;;;;5077335;28;20194;-57
2022/01/04 09:31:11;;;;;;;16.40;11.57;;;7.80;1.00;;;;;;5080135;28;20277;-56
2022/01/04 09:33:38;;;;;;;17.93;12.10;;;7.80;1.00;;;;;;5070319;28;20597;-57
2022/01/04 09:36:25;;;;;;;16.97;11.17;;;7.80;1.00;;;;;;5061885;28;20198;-57
2022/01/04 09:38:52;;;;;;;16.23;11.60;;;7.80;1.00;;;;;;5078270;28;20692;-56
2022/01/04 09:41:20;;;;;;;15.70;11.43;;;7.80;1.00;;;;;;5079997;28;20281;-56
2022/01/04 09:43:49;;;;;;;16.17;11.83;;;7.80;1.00;;;;;;5064841;28;20198;-57
2022/01/04 09:46:16;;;;;;;15.03;10.53;;;7.90;1.00;;;;;;5078407;28;20186;-57
2022/01/04 09:48:43;;;;;;;14.17;10.67;;;7.90;1.00;;;;;;5062083;28;20211;-57
2022/01/04 09:51:12;;;;;;;13.83;10.30;;;7.90;1.00;;;;;;5079424;28;20280;-57
2022/01/04 09:53:39;;;;;;;15.10;10.37;;;7.90;1.00;;;;;;5064851;28;20198;-57
2022/01/04 09:56:07;;;;;;;14.00;10.23;;;7.80;1.00;;;;;;5079363;28;20206;-57
2022/01/04 09:58:34;;;;;;;16.43;9.40;;;7.90;1.00;;;;;;5057224;28;20195;-56
2022/01/04 10:01:02;;;;;;;13.47;10.30;;;7.90;1.00;;;;;;5076982;28;21660;-56
2022/01/04 10:03:31;;;;;;;16.17;10.87;;;7.90;1.00;;;;;;5060984;28;20253;-57
2022/01/04 10:06:09;;;;;;;17.10;11.30;;;7.90;1.00;;;;;;5073990;28;20195;-58
2022/01/04 10:08:53;;;;;;;18.17;10.27;;;8.00;1.00;;;;;;5058398;28;20217;-57
2022/01/04 10:11:32;;;;;;;21.97;10.23;;;8.00;1.00;;;;;;5079614;28;20657;-57
2022/01/04 10:14:01;;;;;;;14.73;9.93;;;8.00;1.00;;;;;;5077537;28;20198;-57
2022/01/04 10:16:28;;;;;;;13.73;10.17;;;8.00;1.00;;;;;;5076711;28;20226;-59
2022/01/04 10:18:55;;;;;;;17.17;11.03;;;8.00;1.00;;;;;;5076348;28;20244;-58
2022/01/04 10:21:22;;;;;;;15.23;10.33;;;8.00;1.00;;;;;;5065716;28;20258;-57
2022/01/04 10:23:56;;;;;;;15.80;10.57;;;8.00;1.00;;;;;;5079104;28;20183;-58
2022/01/04 10:26:37;;;;;;;14.87;10.30;;;8.00;1.00;;;;;;5081523;28;20199;-57
2022/01/04 10:29:20;;;;;;;14.60;10.20;;;8.00;1.00;;;;;;5083418;28;20196;-57
2022/01/04 10:31:48;;;;;;;16.13;11.10;;;8.00;1.00;;;;;;5079591;28;20195;-58
2022/01/04 10:34:15;;;;;;;13.93;9.83;;;8.00;1.00;;;;;;5060506;28;20234;-57
2022/01/04 10:36:44;;;;;;;15.27;10.77;;;8.00;1.00;;;;;;5073233;28;20222;-60
2022/01/04 10:39:11;;;;;;;17.97;10.87;;;8.00;1.00;;;;;;5077780;28;20198;-59
2022/01/04 10:41:38;;;;;;;15.60;11.10;;;7.90;1.00;;;;;;5078952;28;20640;-59
2022/01/04 10:44:10;;;;;;;15.33;10.43;;;8.00;1.00;;;;;;5078116;28;20218;-57
2022/01/04 10:46:44;;;;;;;16.03;10.87;;;8.00;1.00;;;;;;5076222;28;20915;-58
2022/01/04 10:49:20;;;;;;;17.03;10.37;;;8.10;1.00;;;;;;5063174;28;20711;-58
2022/01/04 10:52:05;;;;;;;14.70;10.60;;;8.10;1.00;;;;;;5081990;28;20222;-57
2022/01/04 10:54:32;;;;;;;18.73;9.80;;;8.10;1.00;;;;;;5080894;28;20233;-58
2022/01/04 10:57:10;;;;;;;13.37;9.10;;;8.10;1.00;;;;;;5062517;28;20190;-58
2022/01/04 10:59:37;;;;;;;10.97;8.30;;;8.10;1.00;;;;;;5060978;28;20209;-57
2022/01/04 11:02:05;;;;;;;11.70;8.37;;;8.10;1.00;;;;;;5063475;28;20244;-58
2022/01/04 11:04:32;;;;;;;17.07;8.40;;;8.10;1.00;;;;;;5080144;28;20267;-58
2022/01/04 11:07:02;;;;;;;10.70;7.73;;;8.00;1.00;;;;;;5077163;28;20201;-59
2022/01/04 11:09:30;;;;;;;12.07;8.33;;;8.10;1.00;;;;;;5080297;28;20199;-57
2022/01/04 11:11:57;;;;;;;9.90;7.03;;;8.10;1.00;;;;;;5080358;28;20190;-57
2022/01/04 11:14:25;;;;;;;10.57;7.53;;;8.20;1.00;;;;;;5078380;28;20237;-56
2022/01/04 11:16:52;;;;;;;9.43;6.90;;;8.10;1.00;;;;;;5059494;28;20283;-57
2022/01/04 11:19:20;;;;;;;9.33;7.00;;;8.20;99.90;;;;;;5083032;28;20222;-57
2022/01/04 11:21:48;;;;;;;10.67;6.83;;;8.20;99.90;;;;;;5079137;28;20905;-58
2022/01/04 11:24:18;;;;;;;10.70;7.43;;;8.20;99.90;;;;;;5068308;28;20233;-57
2022/01/04 11:26:48;;;;;;;10.10;6.37;;;8.30;99.90;;;;;;5064866;28;20333;-57
2022/01/04 11:29:17;;;;;;;10.30;6.10;;;8.30;99.90;;;;;;5084220;28;20198;-57
2022/01/04 11:31:56;;;;;;;9.13;5.77;;;8.30;99.90;;;;;;5083664;28;20202;-58
2022/01/04 11:34:36;;;;;;;10.57;6.60;;;8.30;99.90;;;;;;5065669;28;20202;-58
2022/01/04 11:37:03;;;;;;;9.97;6.40;;;8.20;99.90;;;;;;5084919;28;20297;-57
2022/01/04 11:39:34;;;;;;;10.03;6.83;;;8.20;99.90;;;;;;5078855;28;20190;-58
2022/01/04 11:42:08;;;;;;;10.73;7.00;;;8.20;99.90;;;;;;5082540;28;20225;-57
2022/01/04 11:44:44;;;;;;;13.67;8.53;;;8.20;99.90;;;;;;5069398;28;20956;-57
2022/01/04 11:47:15;;;;;;;14.20;8.43;;;8.20;99.90;;;;;;5080955;28;20233;-57
2022/01/04 11:50:06;;;;;;;14.47;8.73;;;8.20;99.90;;;;;;5085447;28;20247;-57
2022/01/04 11:52:38;;;;;;;13.37;9.47;;;8.20;1.00;;;;;;5084407;28;20758;-58
2022/01/04 11:55:17;;;;;;;14.47;10.60;;;8.10;1.00;;;;;;5083634;28;20236;-57
2022/01/04 11:57:44;;;;;;;18.10;10.73;;;8.20;1.00;;;;;;5084885;28;20212;-57
2022/01/04 12:00:22;;;;;;;15.73;10.83;;;8.20;1.00;;;;;;5081917;28;20202;-57
2022/01/04 12:03:11;;;;;;;13.83;10.70;;;8.20;1.00;;;;;;5071826;28;20780;-58
2022/01/04 12:05:41;;;;;;;15.03;11.07;;;8.20;1.00;;;;;;5081564;28;20626;-57
2022/01/04 12:08:16;;;;;;;15.10;11.20;;;8.20;1.00;;;;;;5068664;28;20604;-58
2022/01/04 12:10:43;;;;;;;15.47;11.87;;;8.30;1.00;;;;;;5078481;28;20703;-57
2022/01/04 12:13:16;;;;;;;18.90;12.90;;;8.30;1.00;;;;;;5081233;28;20238;-57
2022/01/04 12:15:44;;;;;;;16.53;12.27;;;8.20;1.00;;;;;;5077611;28;20216;-57
2022/01/04 12:18:23;;;;;;;21.20;13.53;;;8.20;1.00;;;;;;5079248;28;20306;-58
2022/01/04 12:20:55;;;;;;;17.50;12.97;;;8.30;1.00;;;;;;5074516;28;20213;-57
2022/01/04 12:23:29;;;;;;;22.67;13.10;;;8.30;1.00;;;;;;5079409;28;20693;-58
2022/01/04 12:26:05;;;;;;;20.67;13.57;;;8.40;1.00;;;;;;5079477;28;20222;-57
2022/01/04 12:28:34;;;;;;;16.03;11.90;;;8.50;99.90;;;;;;5080395;28;20201;-57
2022/01/04 12:31:13;;;;;;;17.00;13.23;;;8.50;99.90;;;;;;5081784;28;20190;-58
2022/01/04 12:33:52;;;;;;;19.73;13.30;;;8.50;99.90;;;;;;5084286;28;20225;-58
2022/01/04 12:36:33;;;;;;;20.23;13.63;;;8.50;99.90;;;;;;5072852;28;21258;-57
2022/01/04 12:39:02;;;;;;;18.50;13.10;;;8.50;1.00;;;;;;5080405;28;20220;-59
2022/01/04 12:41:30;;;;;;;22.27;14.23;;;8.50;1.00;;;;;;5077080;28;20198;-57
2022/01/04 12:43:58;;;;;;;22.70;15.57;;;8.40;1.00;;;;;;5080127;28;20748;-56
2022/01/04 12:46:26;;;;;;;22.37;14.80;;;8.40;1.00;;;;;;5081779;28;20586;-58
2022/01/04 12:48:56;;;;;;;20.63;15.50;;;8.40;1.00;;;;;;5064935;28;20191;-58
2022/01/04 12:51:38;;;;;;;23.70;15.53;;;8.40;1.00;;;;;;5063023;28;20223;-57
2022/01/04 12:54:12;;;;;;;20.90;14.90;;;8.40;1.00;;;;;;5061773;28;20273;-57
2022/01/04 12:56:40;;;;;;;20.67;14.77;;;8.40;1.00;;;;;;5082837;28;20263;-58
2022/01/04 12:59:08;;;;;;;23.30;16.07;;;8.40;1.00;;;;;;5067806;28;20238;-58
2022/01/04 13:01:36;;;;;;;22.93;15.87;;;8.40;1.00;;;;;;5079361;28;20199;-57
2022/01/04 13:04:20;;;;;;;26.70;16.90;;;8.30;1.00;;;;;;5080804;28;20234;-57
2022/01/04 13:06:47;;;;;;;26.20;17.30;;;8.40;1.00;;;;;;5077120;28;20247;-58
2022/01/04 13:09:21;;;;;;;24.07;17.17;;;8.30;1.00;;;;;;5080120;28;20255;-58